Time;durP1;ratioP1;P1;durP2;ratioP2;P2;SDS_P1;SDS_P2;PMS_P1;PMS_P2;Temp;Humidity;BMP_temperature;BMP_pressure;BME280_temperature;BME280_humidity;BME280_pressure;Samples;Min_cycle;Max_cycle;Signal;HPM_P1;HPM_P2
2021/07/11 00:00:11;;;;;;;1.00;1.00;;;25.00;49.90;;;28.71;33.74;101361.31;5114570;28;20051;-51
2021/07/11 00:02:37;;;;;;;1.10;1.10;;;25.00;49.90;;;28.75;33.99;101370.84;5114943;28;20440;-50
2021/07/11 00:05:07;;;;;;;1.30;1.20;;;25.00;49.90;;;28.73;34.03;101362.03;5114582;28;20081;-55
2021/07/11 00:07:33;;;;;;;1.20;1.20;;;25.00;49.90;;;28.73;33.65;101363.88;5114687;28;20479;-50
2021/07/11 00:09:59;;;;;;;1.10;1.10;;;25.00;49.90;;;28.73;33.82;101364.72;5114531;28;20039;-53
2021/07/11 00:12:26;;;;;;;1.33;1.23;;;25.00;50.00;;;28.71;34.03;101364.00;5113667;28;20051;-51
2021/07/11 00:14:54;;;;;;;1.25;1.20;;;25.00;50.00;;;28.67;33.79;101351.81;5114470;28;20403;-52
2021/07/11 00:17:21;;;;;;;1.00;1.00;;;25.00;50.00;;;28.69;33.84;101363.28;5096860;28;20043;-54
2021/07/11 00:19:47;;;;;;;1.10;1.10;;;25.00;50.60;;;28.68;34.04;101366.97;5114426;28;20046;-51
2021/07/11 00:22:13;;;;;;;1.20;1.20;;;25.00;50.10;;;28.69;33.94;101367.84;5114699;28;20055;-52
2021/07/11 00:24:40;;;;;;;1.02;1.02;;;25.00;50.10;;;28.66;34.10;101360.03;5114671;28;20061;-51
2021/07/11 00:27:07;;;;;;;0.90;0.90;;;24.90;50.00;;;28.67;34.25;101367.97;5114685;28;20475;-54
2021/07/11 00:29:34;;;;;;;1.23;1.13;;;24.90;50.10;;;28.65;34.20;101361.84;5114267;28;20044;-53
2021/07/11 00:31:59;;;;;;;1.00;1.00;;;24.90;50.10;;;28.59;34.11;101349.78;5114199;28;20051;-52
2021/07/11 00:34:25;;;;;;;1.20;1.10;;;24.90;50.10;;;28.61;34.08;101355.88;5114130;28;20054;-51
2021/07/11 00:36:51;;;;;;;1.05;1.05;;;24.90;50.10;;;28.60;34.12;101364.94;5114184;28;20112;-53
2021/07/11 00:39:20;;;;;;;1.15;1.15;;;24.90;50.10;;;28.63;34.10;101367.38;5114006;28;20039;-53
2021/07/11 00:41:46;;;;;;;0.95;0.95;;;24.90;50.10;;;28.63;34.14;101363.81;5078901;28;20073;-52
2021/07/11 00:44:12;;;;;;;1.25;1.15;;;24.90;50.20;;;28.60;34.06;101364.94;5095835;28;20039;-50
2021/07/11 00:46:45;;;;;;;1.10;1.10;;;24.90;50.20;;;28.57;34.25;101362.53;5113244;28;20051;-50
2021/07/11 00:49:14;;;;;;;1.30;1.20;;;24.80;50.20;;;28.56;34.32;101359.97;5112107;28;20043;-54
2021/07/11 00:51:42;;;;;;;1.10;1.00;;;24.90;50.20;;;28.57;34.24;101369.75;5113106;28;20072;-55
2021/07/11 00:54:09;;;;;;;1.20;1.20;;;24.80;50.20;;;28.54;34.41;101364.59;5095925;28;20051;-53
2021/07/11 00:56:35;;;;;;;1.10;1.10;;;24.80;50.20;;;28.53;34.36;101361.03;5095443;28;20039;-51
2021/07/11 00:59:01;;;;;;;1.00;1.00;;;24.80;50.30;;;28.53;34.21;101363.72;5112810;28;20130;-54
2021/07/11 01:01:36;;;;;;;1.00;1.00;;;24.80;50.30;;;28.52;34.38;101367.41;5094572;28;20404;-50
2021/07/11 01:04:13;;;;;;;1.35;1.25;;;24.80;50.30;;;28.52;34.29;101369.25;5113904;28;20055;-49
2021/07/11 01:06:46;;;;;;;1.30;1.20;;;24.80;50.30;;;28.51;34.26;101373.78;5095844;28;20046;-52
2021/07/11 01:09:25;;;;;;;1.07;1.07;;;24.80;50.30;;;28.48;34.49;101371.34;5094422;28;20048;-52
2021/07/11 01:12:00;;;;;;;1.33;1.23;;;24.80;50.40;;;28.48;34.46;101374.03;5095587;28;20047;-51
2021/07/11 01:14:31;;;;;;;1.38;1.27;;;24.80;50.40;;;28.49;34.38;101381.13;5112275;28;20043;-52
2021/07/11 01:16:58;;;;;;;1.10;1.10;;;24.80;50.40;;;28.49;34.16;101389.19;5095039;28;20044;-50
2021/07/11 01:19:48;;;;;;;1.42;1.33;;;24.80;50.40;;;28.46;34.41;101381.38;5095494;28;20479;-50
2021/07/11 01:22:20;;;;;;;1.20;1.15;;;24.80;50.40;;;28.46;34.40;101389.47;5113821;28;20036;-49
2021/07/11 01:25:03;;;;;;;1.33;1.23;;;24.70;50.40;;;28.44;34.29;101375.31;5095550;28;20395;-50
2021/07/11 01:27:31;;;;;;;1.10;1.10;;;24.70;50.40;;;28.46;34.18;101384.09;5111876;28;20047;-52
2021/07/11 01:29:59;;;;;;;1.05;1.05;;;24.70;50.50;;;28.42;34.22;101378.13;5113667;28;20051;-49
2021/07/11 01:32:26;;;;;;;1.33;1.23;;;24.70;50.40;;;28.40;34.19;101374.72;5095001;28;20047;-54
2021/07/11 01:34:53;;;;;;;1.17;1.15;;;24.70;50.40;;;28.41;34.46;101381.78;5078504;28;20384;-51
2021/07/11 01:37:19;;;;;;;1.40;1.30;;;24.70;50.50;;;28.40;34.25;101371.16;5111280;28;20051;-51
2021/07/11 01:39:46;;;;;;;1.42;1.33;;;24.70;50.50;;;28.35;34.58;101371.56;5111708;28;20052;-52
2021/07/11 01:42:14;;;;;;;1.45;1.10;;;24.70;50.50;;;28.36;34.50;101372.41;5095113;28;20047;-51
2021/07/11 01:44:41;;;;;;;1.35;1.25;;;24.70;50.50;;;28.38;34.47;101373.13;5095375;28;20047;-54
2021/07/11 01:47:09;;;;;;;1.27;1.17;;;24.70;50.50;;;28.34;34.68;101374.38;5094980;28;20063;-52
2021/07/11 01:49:40;;;;;;;1.25;1.17;;;24.70;50.50;;;28.36;34.54;101377.78;5094659;28;20060;-50
2021/07/11 01:52:07;;;;;;;1.10;1.10;;;24.70;50.60;;;28.33;34.26;101373.50;5112211;28;20055;-52
2021/07/11 01:54:33;;;;;;;1.40;1.30;;;24.70;50.60;;;28.31;34.31;101372.81;5111572;28;20134;-49
2021/07/11 01:56:59;;;;;;;1.40;1.30;;;24.70;50.60;;;28.35;34.45;101384.16;5094784;28;20101;-52
2021/07/11 01:59:28;;;;;;;1.20;1.10;;;24.70;50.70;;;28.34;34.63;101383.31;5111660;28;20051;-53
2021/07/11 02:02:14;;;;;;;1.15;1.10;;;24.70;50.70;;;28.34;34.49;101385.16;5115504;28;20039;-50
2021/07/11 02:04:48;;;;;;;1.30;1.20;;;24.60;50.60;;;28.30;34.57;101371.13;5115279;28;20474;-50
2021/07/11 02:07:14;;;;;;;1.30;1.20;;;24.70;50.70;;;28.31;34.61;101383.56;5116480;28;20047;-52
2021/07/11 02:09:39;;;;;;;1.40;1.30;;;24.60;50.60;;;28.29;34.32;101374.78;5116356;28;20063;-53
2021/07/11 02:12:12;;;;;;;1.25;1.20;;;24.60;50.70;;;28.26;34.50;101375.03;5115192;28;20043;-51
2021/07/11 02:14:50;;;;;;;1.30;1.20;;;24.70;50.70;;;28.25;34.61;101384.94;5083493;28;20065;-52
2021/07/11 02:17:25;;;;;;;1.40;1.30;;;24.60;50.70;;;28.25;34.49;101386.75;5098362;28;20416;-54
2021/07/11 02:20:05;;;;;;;1.30;1.20;;;24.60;50.70;;;28.25;34.61;101384.94;5116422;28;20047;-49
2021/07/11 02:22:41;;;;;;;1.10;1.10;;;24.60;50.70;;;28.24;34.62;101380.53;5098025;28;20051;-52
2021/07/11 02:25:09;;;;;;;1.02;1.02;;;24.60;50.70;;;28.26;34.83;101388.47;5116260;28;20058;-54
2021/07/11 02:27:35;;;;;;;1.30;1.20;;;24.60;50.80;;;28.24;34.52;101377.00;5097844;28;20047;-53
2021/07/11 02:30:10;;;;;;;1.23;1.10;;;24.60;50.80;;;28.23;34.78;101376.16;5081619;28;20479;-53
2021/07/11 02:32:42;;;;;;;1.17;1.17;;;24.60;50.80;;;28.21;34.59;101371.88;5116281;28;20047;-53
2021/07/11 02:35:09;;;;;;;1.13;1.13;;;24.60;50.80;;;28.21;34.71;101375.41;5080526;28;20055;-52
2021/07/11 02:37:46;;;;;;;1.30;1.20;;;24.60;50.80;;;28.21;34.51;101374.56;5097998;28;20096;-53
2021/07/11 02:40:16;;;;;;;1.40;1.30;;;24.50;50.80;;;28.19;34.57;101371.16;5097258;28;20052;-50
2021/07/11 02:42:44;;;;;;;1.48;1.38;;;24.50;50.80;;;28.17;34.58;101368.63;5080817;28;20048;-52
2021/07/11 02:45:12;;;;;;;1.40;1.30;;;24.60;50.80;;;28.18;34.64;101370.28;5096348;28;20055;-50
2021/07/11 02:47:44;;;;;;;1.50;1.40;;;24.60;50.80;;;28.19;34.91;101379.25;5081320;28;20043;-53
2021/07/11 02:50:14;;;;;;;1.35;1.25;;;24.50;50.80;;;28.18;34.51;101372.16;5096711;28;20052;-50
2021/07/11 02:52:44;;;;;;;1.10;1.10;;;24.60;50.80;;;28.15;34.80;101367.03;5097965;28;20105;-51
2021/07/11 02:55:18;;;;;;;1.30;1.20;;;24.50;50.90;;;28.15;34.79;101370.59;5096577;28;20052;-54
2021/07/11 02:57:53;;;;;;;1.30;1.20;;;24.50;50.80;;;28.14;34.52;101365.34;5097355;28;20071;-52
2021/07/11 03:00:19;;;;;;;1.35;1.25;;;24.50;50.90;;;28.17;34.81;101362.38;5097551;28;20056;-53
2021/07/11 03:02:45;;;;;;;1.25;1.20;;;24.50;50.80;;;28.17;34.88;101362.38;5116214;28;20432;-51
2021/07/11 03:05:22;;;;;;;1.38;1.27;;;24.50;50.90;;;28.12;34.62;101353.84;5096036;28;20483;-52
2021/07/11 03:07:50;;;;;;;1.45;1.27;;;24.50;50.90;;;28.15;34.70;101364.34;5097147;28;20051;-46
2021/07/11 03:10:18;;;;;;;1.40;1.30;;;24.50;50.90;;;28.14;34.90;101355.44;5096233;28;20496;-52
2021/07/11 03:12:49;;;;;;;1.38;1.13;;;24.50;50.90;;;28.14;34.97;101357.28;5113896;28;20052;-52
2021/07/11 03:15:18;;;;;;;1.55;1.45;;;24.50;50.90;;;28.13;34.93;101356.41;5079794;28;20445;-52
2021/07/11 03:17:48;;;;;;;1.57;1.47;;;24.50;51.00;;;28.12;34.74;101353.84;5097102;28;20399;-55
2021/07/11 03:20:16;;;;;;;1.50;1.40;;;24.50;50.90;;;28.12;34.91;101359.22;5095634;28;20055;-52
2021/07/11 03:22:43;;;;;;;1.48;1.38;;;24.50;50.90;;;28.13;34.58;101359.09;5115413;28;20044;-50
2021/07/11 03:25:12;;;;;;;1.10;1.10;;;24.50;50.90;;;28.14;34.57;101365.34;5097082;28;20046;-51
2021/07/11 03:27:39;;;;;;;1.33;1.23;;;24.50;50.90;;;28.13;34.85;101356.41;5115046;28;20055;-48
2021/07/11 03:30:12;;;;;;;1.02;1.02;;;24.50;50.90;;;28.13;34.73;101361.78;5115156;28;20094;-49
2021/07/11 03:32:45;;;;;;;1.60;1.50;;;24.60;50.90;;;28.15;34.67;101367.91;5115323;28;20043;-51
2021/07/11 03:35:14;;;;;;;1.25;1.23;;;24.60;50.80;;;28.18;34.67;101372.97;5096962;28;20056;-49
2021/07/11 03:37:46;;;;;;;1.30;1.20;;;24.50;50.80;;;28.16;34.77;101366.06;5097343;28;20096;-50
2021/07/11 03:40:21;;;;;;;1.48;1.38;;;24.60;50.80;;;28.17;34.81;101367.78;5097075;28;20052;-52
2021/07/11 03:42:51;;;;;;;1.02;1.02;;;24.50;50.80;;;28.17;34.39;101362.38;5095008;28;20039;-52
2021/07/11 03:45:17;;;;;;;1.55;1.45;;;24.50;50.80;;;28.16;34.87;101361.50;5094670;28;20058;-51
2021/07/11 03:47:47;;;;;;;1.13;1.10;;;24.50;50.80;;;28.15;34.71;101358.97;5114766;28;20051;-54
2021/07/11 03:50:15;;;;;;;1.10;1.10;;;24.50;50.90;;;28.16;34.94;101356.13;5096587;28;20502;-53
2021/07/11 03:52:50;;;;;;;1.38;1.27;;;24.50;50.90;;;28.14;34.63;101363.50;5114851;28;20054;-53
2021/07/11 03:55:17;;;;;;;1.25;1.15;;;24.50;50.80;;;28.14;34.70;101355.44;5079318;28;20050;-50
2021/07/11 03:57:47;;;;;;;1.42;1.33;;;24.50;50.90;;;28.15;34.79;101367.91;5096801;28;20047;-52
2021/07/11 04:00:16;;;;;;;1.60;1.50;;;24.50;50.90;;;28.13;34.85;101359.09;5114718;28;20135;-54
2021/07/11 04:02:47;;;;;;;1.50;1.40;;;24.50;50.80;;;28.16;34.64;101366.06;5114767;28;20097;-52
2021/07/11 04:05:15;;;;;;;1.20;1.13;;;24.50;50.80;;;28.18;34.82;101358.69;5095478;28;20051;-51
2021/07/11 04:07:42;;;;;;;1.38;1.30;;;24.60;50.80;;;-147.20;100.00;58430.41;5114683;28;20093;-51
2021/07/11 04:10:10;;;;;;;1.35;1.25;;;24.60;50.70;;;-147.20;100.00;58430.41;5092454;28;20058;-51
2021/07/11 04:12:36;;;;;;;1.75;1.65;;;24.60;50.60;;;-147.20;100.00;58430.41;5079441;28;20051;-49
2021/07/11 04:15:02;;;;;;;1.40;1.30;;;24.70;50.50;;;-147.20;100.00;58430.41;5114539;28;20044;-49
2021/07/11 04:17:30;;;;;;;1.30;1.20;;;24.70;50.50;;;-147.20;100.00;58430.41;5114552;28;20512;-47
2021/07/11 04:20:00;;;;;;;1.20;1.20;;;24.70;50.50;;;-147.20;100.00;58430.41;5094909;28;20052;-52
2021/07/11 04:22:27;;;;;;;1.42;1.33;;;24.80;50.40;;;-147.20;100.00;58430.41;5096234;28;20075;-51
2021/07/11 04:24:54;;;;;;;1.50;1.40;;;24.80;50.30;;;-147.20;100.00;58430.41;5112687;28;20479;-50
2021/07/11 04:27:23;;;;;;;1.00;1.00;;;24.80;50.30;;;-147.20;100.00;58430.41;5078838;28;20043;-46
2021/07/11 04:29:51;;;;;;;1.48;1.38;;;24.80;50.20;;;-147.20;100.00;58430.41;5114336;28;20048;-49
2021/07/11 04:32:17;;;;;;;1.08;1.08;;;24.80;50.20;;;-147.20;100.00;58430.41;5114140;28;20074;-46
2021/07/11 04:34:44;;;;;;;1.20;1.13;;;24.80;50.20;;;-147.20;100.00;58430.41;5095910;28;20061;-46
2021/07/11 04:37:11;;;;;;;1.50;1.40;;;24.80;50.20;;;-147.20;100.00;58430.41;5114360;28;20051;-46
2021/07/11 04:39:37;;;;;;;1.50;1.40;;;24.80;50.20;;;-147.20;100.00;58430.41;5114078;28;20050;-50
2021/07/11 04:42:03;;;;;;;1.40;1.30;;;24.80;50.30;;;-147.20;100.00;58430.41;5114438;28;20044;-49
2021/07/11 04:44:31;;;;;;;1.38;1.27;;;24.80;50.30;;;-147.20;100.00;58430.41;5114134;28;20429;-48
2021/07/11 04:46:57;;;;;;;1.33;1.23;;;24.80;50.30;;;-147.20;100.00;58430.41;5113868;28;20047;-46
2021/07/11 04:49:24;;;;;;;1.10;1.10;;;24.80;50.30;;;-147.20;100.00;58430.41;5114363;28;20059;-52
2021/07/11 04:51:51;;;;;;;1.63;1.30;;;24.80;50.90;;;-147.20;100.00;58430.41;5113985;28;20060;-48
2021/07/11 04:54:17;;;;;;;1.30;1.20;;;24.80;50.40;;;-147.20;100.00;58430.41;5113959;28;20100;-47
2021/07/11 04:56:43;;;;;;;1.40;1.30;;;24.80;50.30;;;-147.20;100.00;58430.41;5114089;28;20039;-50
2021/07/11 04:59:09;;;;;;;1.40;1.30;;;24.80;50.40;;;-147.20;100.00;58430.41;5114032;28;20372;-47
2021/07/11 05:01:34;;;;;;;1.23;1.17;;;24.80;50.30;;;-147.20;100.00;58430.41;5113743;28;20499;-49
2021/07/11 05:04:01;;;;;;;1.20;1.20;;;24.80;50.40;;;-147.20;100.00;58430.41;5114075;28;20047;-49
2021/07/11 05:06:27;;;;;;;1.20;1.10;;;24.80;50.40;;;-147.20;100.00;58430.41;5113733;28;20047;-51
2021/07/11 05:08:52;;;;;;;1.40;1.30;;;24.80;50.30;;;-147.20;100.00;58430.41;5113620;28;20403;-51
2021/07/11 05:11:18;;;;;;;1.20;1.20;;;24.80;50.40;;;-147.20;100.00;58430.41;5095514;28;20043;-51
2021/07/11 05:13:44;;;;;;;1.10;1.10;;;24.70;50.20;;;-147.20;100.00;58430.41;5093630;28;20048;-52
2021/07/11 05:16:10;;;;;;;1.30;1.20;;;24.80;50.30;;;-147.20;100.00;58430.41;5113579;28;20127;-49
2021/07/11 05:18:36;;;;;;;1.40;1.30;;;24.80;50.40;;;-147.20;100.00;58430.41;5113457;28;20043;-50
2021/07/11 05:21:03;;;;;;;1.00;1.00;;;24.80;50.40;;;-147.20;100.00;58430.41;5113469;28;20129;-50
2021/07/11 05:23:28;;;;;;;1.40;1.30;;;24.80;50.30;;;-147.20;100.00;58430.41;5113406;28;20048;-51
2021/07/11 05:25:54;;;;;;;1.23;1.17;;;24.80;50.30;;;-147.20;100.00;58430.41;5094470;28;20058;-50
2021/07/11 05:28:20;;;;;;;1.20;1.20;;;24.80;50.30;;;-147.20;100.00;58430.41;5113696;28;20165;-53
2021/07/11 05:30:46;;;;;;;1.30;1.20;;;24.80;50.30;;;-147.20;100.00;58430.41;5113767;28;20043;-49
2021/07/11 05:33:12;;;;;;;1.10;1.10;;;24.80;50.30;;;-147.20;100.00;58430.41;5113372;28;20047;-50
2021/07/11 05:35:38;;;;;;;1.00;1.00;;;24.80;50.30;;;-147.20;100.00;58430.41;5113683;28;20361;-48
2021/07/11 05:38:04;;;;;;;1.40;1.30;;;24.80;50.20;;;-147.20;100.00;58430.41;5112999;28;20406;-51
2021/07/11 05:40:30;;;;;;;1.52;1.42;;;24.80;50.20;;;-147.20;100.00;58430.41;5113183;28;20063;-52
2021/07/11 05:42:56;;;;;;;1.40;1.30;;;24.80;50.30;;;-147.20;100.00;58430.41;5113281;28;20135;-47
2021/07/11 05:45:22;;;;;;;1.38;1.27;;;24.80;50.20;;;-147.20;100.00;58430.41;5112924;28;20051;-50
2021/07/11 05:47:47;;;;;;;1.30;1.20;;;24.80;50.10;;;-147.20;100.00;58430.41;5113160;28;20047;-49
2021/07/11 05:50:15;;;;;;;1.40;1.30;;;24.80;50.10;;;-147.20;100.00;58430.41;5113039;28;20184;-52
2021/07/11 05:52:42;;;;;;;1.48;1.38;;;24.90;50.10;;;-147.20;100.00;58430.41;5113074;28;20048;-53
2021/07/11 05:55:09;;;;;;;1.10;1.10;;;24.90;50.10;;;-147.20;100.00;58430.41;5109843;28;20052;-52
2021/07/11 05:57:35;;;;;;;1.30;1.20;;;24.90;50.10;;;-147.20;100.00;58430.41;5112999;28;20040;-53
2021/07/11 06:00:01;;;;;;;1.40;1.30;;;24.90;50.00;;;-147.20;100.00;58430.41;5112934;28;20056;-52
2021/07/11 06:02:27;;;;;;;1.13;1.13;;;24.90;50.00;;;-147.20;100.00;58430.41;5112827;28;20047;-51
2021/07/11 06:04:53;;;;;;;1.17;1.17;;;24.90;50.00;;;-147.20;100.00;58430.41;5113157;28;20126;-55
2021/07/11 06:07:19;;;;;;;1.15;1.10;;;24.90;49.90;;;-147.20;100.00;58430.41;5113397;28;20051;-49
2021/07/11 06:09:45;;;;;;;1.08;1.08;;;25.00;50.00;;;-147.20;100.00;58430.41;5113378;28;20040;-53
2021/07/11 06:12:11;;;;;;;1.10;1.10;;;25.00;50.00;;;-147.20;100.00;58430.41;5113183;28;20044;-51
2021/07/11 06:14:36;;;;;;;1.30;1.20;;;24.90;49.90;;;-147.20;100.00;58430.41;5113074;28;20042;-48
2021/07/11 06:17:02;;;;;;;1.30;1.20;;;24.90;49.90;;;-147.20;100.00;58430.41;5094467;28;20510;-47
2021/07/11 06:19:28;;;;;;;1.45;1.35;;;24.90;49.90;;;-147.20;100.00;58430.41;5112499;28;20044;-48
2021/07/11 06:21:54;;;;;;;1.25;1.15;;;25.00;49.90;;;-147.20;100.00;58430.41;5113245;28;20043;-53
2021/07/11 06:24:20;;;;;;;1.50;1.40;;;24.90;49.90;;;-147.20;100.00;58430.41;5112912;28;20044;-52
2021/07/11 06:26:47;;;;;;;1.25;1.20;;;24.90;49.90;;;-147.20;100.00;58430.41;5094219;28;20052;-51
2021/07/11 06:29:13;;;;;;;1.35;1.33;;;25.00;50.00;;;-147.20;100.00;58430.41;5093029;28;20488;-51
2021/07/11 06:31:39;;;;;;;1.25;1.25;;;25.00;50.00;;;-147.20;100.00;58430.41;5112674;28;20039;-48
2021/07/11 06:34:05;;;;;;;1.45;1.35;;;24.90;49.90;;;-147.20;100.00;58430.41;5112747;28;20048;-47
2021/07/11 06:36:31;;;;;;;1.40;1.33;;;24.90;49.90;;;-147.20;100.00;58430.41;5112867;28;20497;-46
2021/07/11 06:39:02;;;;;;;1.10;1.10;;;25.00;49.90;;;-147.20;100.00;58430.41;5113071;28;20047;-48
2021/07/11 06:41:28;;;;;;;1.30;1.20;;;25.00;49.90;;;-147.20;100.00;58430.41;5094270;28;20051;-51
2021/07/11 06:43:53;;;;;;;1.20;1.20;;;25.00;49.80;;;-147.20;100.00;58430.41;5112670;28;20098;-49
2021/07/11 06:46:19;;;;;;;1.20;1.10;;;25.00;49.80;;;-147.20;100.00;58430.41;5113097;28;20440;-49
2021/07/11 06:48:45;;;;;;;1.10;1.10;;;25.00;49.80;;;-147.20;100.00;58430.41;5116141;28;20395;-52
2021/07/11 06:51:11;;;;;;;1.10;1.10;;;25.00;49.80;;;-147.20;100.00;58430.41;5115894;28;20043;-49
2021/07/11 06:53:38;;;;;;;1.05;1.05;;;25.00;49.70;;;-147.20;100.00;58430.41;5116138;28;20060;-47
2021/07/11 06:56:05;;;;;;;1.05;1.05;;;25.00;49.70;;;-147.20;100.00;58430.41;5115853;28;20372;-47
2021/07/11 06:58:31;;;;;;;1.40;1.30;;;25.00;49.70;;;-147.20;100.00;58430.41;5116307;28;20074;-49
2021/07/11 07:00:56;;;;;;;1.35;1.25;;;25.10;49.80;;;-147.20;100.00;58430.41;5115661;28;20078;-51
2021/07/11 07:03:22;;;;;;;1.27;1.17;;;25.20;49.80;;;-147.20;100.00;58430.41;5115693;28;20129;-52
2021/07/11 07:05:48;;;;;;;1.50;1.40;;;25.30;49.50;;;-147.20;100.00;58430.41;5115957;28;20116;-47
2021/07/11 07:08:14;;;;;;;1.20;1.20;;;25.40;49.30;;;-147.20;100.00;58430.41;5115611;28;20151;-49
2021/07/11 07:10:40;;;;;;;1.33;1.23;;;25.40;49.10;;;-147.20;100.00;58430.41;5115834;28;20043;-50
2021/07/11 07:13:06;;;;;;;1.40;1.30;;;25.50;49.00;;;-147.20;100.00;58430.41;5115533;28;20047;-47
2021/07/11 07:15:32;;;;;;;1.40;1.30;;;25.60;48.90;;;-147.20;100.00;58430.41;5115473;28;20039;-47
2021/07/11 07:17:58;;;;;;;1.17;1.13;;;25.60;48.80;;;-147.20;100.00;58430.41;5115477;28;20457;-48
2021/07/11 07:20:24;;;;;;;1.30;1.20;;;25.70;48.60;;;-147.20;100.00;58430.41;5115290;28;20051;-54
2021/07/11 07:22:50;;;;;;;1.23;1.15;;;25.70;48.50;;;-147.20;100.00;58430.41;5115297;28;20054;-50
2021/07/11 07:25:17;;;;;;;1.20;1.10;;;25.80;48.40;;;-147.20;100.00;58430.41;5115401;28;20104;-53
2021/07/11 07:27:44;;;;;;;1.50;1.40;;;25.80;48.30;;;-147.20;100.00;58430.41;5115446;28;20039;-52
2021/07/11 07:30:15;;;;;;;1.55;1.45;;;25.80;48.40;;;-147.20;100.00;58430.41;5115041;28;20048;-51
2021/07/11 07:32:42;;;;;;;1.40;1.30;;;25.90;48.40;;;-147.20;100.00;58430.41;5115017;28;20136;-54
2021/07/11 07:35:09;;;;;;;1.73;1.63;;;25.90;48.30;;;-147.20;100.00;58430.41;5095891;28;20278;-53
2021/07/11 07:37:35;;;;;;;1.48;1.38;;;25.90;48.20;;;-147.20;100.00;58430.41;5115426;28;20436;-50
2021/07/11 07:40:04;;;;;;;1.35;1.30;;;26.00;48.20;;;-147.20;100.00;58430.41;5115367;28;20445;-51
2021/07/11 07:42:30;;;;;;;2.47;1.55;;;26.00;48.10;;;-147.20;100.00;58430.41;5113229;28;20044;-53
2021/07/11 07:44:56;;;;;;;1.55;1.45;;;26.00;48.00;;;-147.20;100.00;58430.41;5115105;28;20479;-50
2021/07/11 07:47:22;;;;;;;1.50;1.40;;;25.90;48.00;;;-147.20;100.00;58430.41;5096894;28;20051;-55
2021/07/11 07:49:47;;;;;;;1.10;1.10;;;26.00;48.10;;;-147.20;100.00;58430.41;5115298;28;20130;-50
2021/07/11 07:52:13;;;;;;;1.20;1.10;;;26.00;48.20;;;-147.20;100.00;58430.41;5114889;28;20085;-53
2021/07/11 07:54:39;;;;;;;1.00;1.00;;;26.00;48.10;;;-147.20;100.00;58430.41;5115459;28;20417;-52
2021/07/11 07:57:05;;;;;;;1.10;1.10;;;26.10;48.00;;;-147.20;100.00;58430.41;5114986;28;20044;-49
2021/07/11 07:59:30;;;;;;;1.27;1.20;;;26.10;47.80;;;-147.20;100.00;58430.41;5113878;28;20047;-50
2021/07/11 08:01:56;;;;;;;1.30;1.20;;;26.20;47.80;;;-147.20;100.00;58430.41;5114712;28;20475;-52
2021/07/11 08:04:22;;;;;;;1.40;1.30;;;26.20;47.60;;;-147.20;100.00;58430.41;5115284;28;20467;-51
2021/07/11 08:06:49;;;;;;;1.48;1.38;;;26.30;47.60;;;-147.20;100.00;58430.41;5114746;28;20047;-49
2021/07/11 08:09:16;;;;;;;1.30;1.20;;;26.30;47.50;;;-147.20;100.00;58430.41;5114878;28;20078;-50
2021/07/11 08:11:43;;;;;;;1.25;1.15;;;26.30;47.90;;;-147.20;100.00;58430.41;5114734;28;20055;-49
2021/07/11 08:14:09;;;;;;;1.15;1.08;;;26.40;47.40;;;-147.20;100.00;58430.41;5114524;28;20074;-49
2021/07/11 08:16:35;;;;;;;1.40;1.30;;;26.40;47.30;;;-147.20;100.00;58430.41;5114602;28;20522;-51
2021/07/11 08:19:01;;;;;;;1.23;1.13;;;26.40;47.20;;;-147.20;100.00;58430.41;5114300;28;20044;-51
2021/07/11 08:21:29;;;;;;;1.02;1.02;;;26.40;47.20;;;-147.20;100.00;58430.41;5114504;28;20058;-50
2021/07/11 08:23:55;;;;;;;1.50;1.40;;;26.50;47.20;;;-147.20;100.00;58430.41;5114751;28;20044;-51
2021/07/11 08:26:21;;;;;;;1.33;1.23;;;26.50;47.10;;;-147.20;100.00;58430.41;5114419;28;20056;-47
2021/07/11 08:28:47;;;;;;;1.33;1.23;;;26.50;47.10;;;-147.20;100.00;58430.41;5114228;28;20124;-49
2021/07/11 08:31:13;;;;;;;1.10;1.08;;;26.50;47.00;;;-147.20;100.00;58430.41;5114684;28;20044;-48
2021/07/11 08:33:39;;;;;;;1.25;1.25;;;26.50;47.00;;;-147.20;100.00;58430.41;5114264;28;20046;-51
2021/07/11 08:36:05;;;;;;;1.30;1.20;;;26.40;47.10;;;-147.20;100.00;58430.41;5114555;28;20414;-49
2021/07/11 08:38:31;;;;;;;1.15;1.10;;;26.40;47.20;;;-147.20;100.00;58430.41;5114228;28;20048;-46
2021/07/11 08:40:56;;;;;;;1.20;1.20;;;26.30;47.20;;;-147.20;100.00;58430.41;5114021;28;20055;-49
2021/07/11 08:43:23;;;;;;;1.00;1.00;;;26.30;47.30;;;-147.20;100.00;58430.41;5114209;28;20134;-49
2021/07/11 08:45:49;;;;;;;1.05;1.05;;;26.30;47.30;;;-147.20;100.00;58430.41;5113875;28;20452;-49
2021/07/11 08:48:15;;;;;;;1.05;1.05;;;26.30;47.40;;;-147.20;100.00;58430.41;5114117;28;20123;-50
2021/07/11 08:50:41;;;;;;;1.23;1.13;;;26.30;47.40;;;-147.20;100.00;58430.41;5114320;28;20051;-50
2021/07/11 08:53:13;;;;;;;1.30;1.20;;;26.30;47.30;;;-147.20;100.00;58430.41;5113948;28;20130;-47
2021/07/11 08:55:39;;;;;;;1.40;1.30;;;26.40;47.30;;;-147.20;100.00;58430.41;5114305;28;20052;-54
2021/07/11 08:58:05;;;;;;;1.42;1.33;;;26.40;47.20;;;-147.20;100.00;58430.41;5113921;28;20047;-50
2021/07/11 09:00:37;;;;;;;1.40;1.30;;;26.40;47.20;;;-147.20;100.00;58430.41;5113789;28;20069;-51
2021/07/11 09:03:05;;;;;;;1.33;1.23;;;26.50;47.20;;;-147.20;100.00;58430.41;5114416;28;20043;-52
2021/07/11 09:05:41;;;;;;;1.33;1.23;;;26.50;47.00;;;-147.20;100.00;58430.41;5113786;28;20044;-51
2021/07/11 09:08:16;;;;;;;1.25;1.23;;;26.60;47.00;;;-147.20;100.00;58430.41;5114169;28;20083;-51
2021/07/11 09:10:52;;;;;;;1.25;1.20;;;26.70;46.90;;;-147.20;100.00;58430.41;5113939;28;20052;-49
2021/07/11 09:13:21;;;;;;;1.13;1.08;;;26.70;46.90;;;-147.20;100.00;58430.41;5113912;28;20130;-49
2021/07/11 09:15:51;;;;;;;1.20;1.20;;;26.70;46.80;;;-147.20;100.00;58430.41;5092166;28;20115;-52
2021/07/11 09:18:36;;;;;;;1.40;1.30;;;26.70;46.80;;;-147.20;100.00;58430.41;5113766;28;20047;-53
2021/07/11 09:21:13;;;;;;;1.30;1.20;;;26.70;46.80;;;-147.20;100.00;58430.41;5113465;28;20392;-51
2021/07/11 09:23:40;;;;;;;1.30;1.20;;;26.70;46.90;;;-147.20;100.00;58430.41;5113488;28;20059;-53
2021/07/11 09:26:12;;;;;;;1.30;1.20;;;26.60;46.80;;;-147.20;100.00;58430.41;5113839;28;20055;-54
2021/07/11 09:28:51;;;;;;;1.10;1.10;;;26.70;46.90;;;-147.20;100.00;58430.41;5113423;28;20055;-52
2021/07/11 09:31:21;;;;;;;1.30;1.20;;;26.60;46.80;;;-147.20;100.00;58430.41;5113943;28;20159;-52
2021/07/11 09:33:57;;;;;;;1.00;1.00;;;26.60;46.80;;;-147.20;100.00;58430.41;5113745;28;20044;-52
2021/07/11 09:36:24;;;;;;;1.05;1.05;;;26.60;46.80;;;-147.20;100.00;58430.41;5113760;28;20293;-51
2021/07/11 09:38:54;;;;;;;1.40;1.30;;;26.60;46.90;;;-147.20;100.00;58430.41;5113343;28;20539;-53
2021/07/11 09:41:24;;;;;;;1.48;1.38;;;26.60;46.90;;;-147.20;100.00;58430.41;5113421;28;20394;-54
2021/07/11 09:43:58;;;;;;;1.40;1.30;;;26.60;46.80;;;-147.20;100.00;58430.41;5113325;28;20044;-49
2021/07/11 09:46:28;;;;;;;1.42;1.33;;;26.60;46.80;;;-147.20;100.00;58430.41;5110009;28;20052;-50
2021/07/11 09:48:54;;;;;;;1.55;1.45;;;26.60;46.90;;;-147.20;100.00;58430.41;5113199;28;20395;-51
2021/07/11 09:51:28;;;;;;;1.30;1.30;;;26.60;46.90;;;-147.20;100.00;58430.41;5113057;28;20502;-50
2021/07/11 09:54:07;;;;;;;1.40;1.30;;;26.70;46.90;;;-147.20;100.00;58430.41;5113120;28;20116;-51
2021/07/11 09:56:45;;;;;;;1.40;1.30;;;26.70;46.90;;;-147.20;100.00;58430.41;5112966;28;20147;-53
2021/07/11 09:59:18;;;;;;;1.52;1.42;;;26.70;46.80;;;-147.20;100.00;58430.41;5094754;28;20044;-51
2021/07/11 10:01:44;;;;;;;1.02;0.93;;;26.70;46.80;;;-147.20;100.00;58430.41;5113079;28;20135;-49
2021/07/11 10:04:11;;;;;;;1.38;1.27;;;26.70;46.70;;;-147.20;100.00;58430.41;5112964;28;20076;-50
2021/07/11 10:06:39;;;;;;;1.27;1.17;;;26.70;46.80;;;-147.20;100.00;58430.41;5112839;28;20130;-51
2021/07/11 10:09:07;;;;;;;1.38;1.27;;;26.70;46.70;;;-147.20;100.00;58430.41;5113416;28;20139;-52